Time;durP1;ratioP1;P1;durP2;ratioP2;P2;SDS_P1;SDS_P2;PMS_P1;PMS_P2;Temp;Humidity;BMP_temperature;BMP_pressure;BME280_temperature;BME280_humidity;BME280_pressure;Samples;Min_cycle;Max_cycle;Signal;HPM_P1;HPM_P2
2023/04/29 00:01:24;;;;;;;4.68;3.63;;;13.00;72.70;;;;;;7368737;19;20014;-73
2023/04/29 00:03:54;;;;;;;5.35;3.95;;;13.00;71.90;;;;;;7389628;19;20478;-72
2023/04/29 00:06:25;;;;;;;4.00;3.45;;;13.00;70.80;;;;;;7368570;19;20042;-72
2023/04/29 00:08:57;;;;;;;4.85;3.60;;;13.00;71.10;;;;;;7366045;19;20066;-72
2023/04/29 00:11:27;;;;;;;3.88;3.20;;;13.00;70.80;;;;;;7369218;19;20038;-72
2023/04/29 00:13:57;;;;;;;4.57;3.67;;;13.00;70.20;;;;;;7367995;19;20014;-72
2023/04/29 00:16:27;;;;;;;4.50;3.17;;;13.00;70.00;;;;;;7369634;19;20020;-72
2023/04/29 00:18:58;;;;;;;4.30;3.33;;;13.00;69.00;;;;;;7388690;19;20014;-72
2023/04/29 00:21:29;;;;;;;4.32;2.85;;;12.90;69.10;;;;;;7368911;19;20015;-72
2023/04/29 00:24:01;;;;;;;7.22;3.13;;;13.00;68.80;;;;;;7367261;19;20010;-72
2023/04/29 00:26:31;;;;;;;5.80;3.28;;;12.90;68.50;;;;;;7368333;19;20089;-71
2023/04/29 00:29:01;;;;;;;3.88;3.15;;;13.00;68.50;;;;;;7366013;19;20011;-72
2023/04/29 00:31:31;;;;;;;3.72;3.00;;;12.90;68.50;;;;;;7368461;19;20114;-72
2023/04/29 00:34:01;;;;;;;4.57;3.88;;;12.90;68.40;;;;;;7390012;19;20038;-72
2023/04/29 00:36:32;;;;;;;5.65;3.90;;;12.80;68.40;;;;;;7369425;19;20506;-73
2023/04/29 00:39:04;;;;;;;3.85;3.45;;;12.80;68.30;;;;;;7365369;19;20007;-72
2023/04/29 00:41:34;;;;;;;3.40;3.10;;;12.70;68.20;;;;;;7367130;19;20014;-72
2023/04/29 00:44:04;;;;;;;4.78;4.05;;;12.60;69.40;;;;;;7370483;19;20014;-72
2023/04/29 00:46:35;;;;;;;7.82;4.38;;;12.60;70.30;;;;;;7374936;19;20021;-71
2023/04/29 00:49:05;;;;;;;5.57;4.10;;;12.50;70.90;;;;;;7395568;19;20059;-72
2023/04/29 00:51:36;;;;;;;5.25;4.07;;;12.40;71.90;;;;;;7376327;19;20014;-72
2023/04/29 00:54:09;;;;;;;5.03;3.95;;;12.30;72.10;;;;;;7374910;19;20014;-72
2023/04/29 00:56:41;;;;;;;6.53;4.63;;;12.20;73.10;;;;;;7375952;19;20013;-72
2023/04/29 00:59:11;;;;;;;5.45;4.63;;;12.20;73.90;;;;;;7370976;19;20018;-72
2023/04/29 01:01:41;;;;;;;10.23;4.93;;;12.10;74.60;;;;;;7374277;19;20007;-72
2023/04/29 01:04:11;;;;;;;5.70;4.80;;;12.00;75.20;;;;;;7375038;19;20010;-72
2023/04/29 01:06:51;;;;;;;8.55;4.68;;;12.00;75.60;;;;;;7395610;19;20070;-73
2023/04/29 01:09:36;;;;;;;6.47;4.50;;;12.00;75.90;;;;;;7372229;19;20010;-72
2023/04/29 01:12:22;;;;;;;6.10;4.95;;;12.00;76.10;;;;;;7373907;19;20011;-74
2023/04/29 01:15:04;;;;;;;6.35;4.45;;;11.90;76.40;;;;;;7374338;19;20837;-71
2023/04/29 01:17:44;;;;;;;5.68;4.85;;;11.90;77.20;;;;;;7372105;19;20074;-72
2023/04/29 01:20:15;;;;;;;6.18;4.13;;;11.80;77.00;;;;;;7374131;19;20089;-72
2023/04/29 01:22:46;;;;;;;6.50;4.82;;;11.70;76.80;;;;;;7373586;19;20010;-72
2023/04/29 01:25:18;;;;;;;8.27;5.47;;;11.60;77.00;;;;;;7374092;19;20002;-73
2023/04/29 01:27:59;;;;;;;8.93;5.38;;;11.60;77.30;;;;;;7392809;19;20026;-72
2023/04/29 01:30:37;;;;;;;6.65;5.72;;;11.50;77.20;;;;;;7371582;19;20107;-73
2023/04/29 01:33:16;;;;;;;6.90;5.88;;;11.50;77.90;;;;;;7374059;19;20033;-72
2023/04/29 01:36:02;;;;;;;7.55;6.38;;;11.50;78.00;;;;;;7372240;19;20502;-72
2023/04/29 01:38:37;;;;;;;8.00;6.38;;;11.50;78.10;;;;;;7371821;19;20003;-71
2023/04/29 01:41:14;;;;;;;6.82;5.75;;;11.50;78.20;;;;;;7371590;19;20032;-72
2023/04/29 01:43:47;;;;;;;8.23;6.40;;;11.50;78.20;;;;;;7373793;19;20078;-72
2023/04/29 01:46:20;;;;;;;6.05;5.45;;;11.40;78.20;;;;;;7374228;19;20114;-72
2023/04/29 01:48:51;;;;;;;8.85;5.55;;;11.40;78.20;;;;;;7394307;19;20078;-72
2023/04/29 01:51:21;;;;;;;7.78;6.07;;;11.30;78.20;;;;;;7372228;19;20021;-72
2023/04/29 01:53:51;;;;;;;8.20;6.15;;;11.30;78.20;;;;;;7372462;19;20037;-74
2023/04/29 01:56:23;;;;;;;8.30;6.30;;;11.30;78.20;;;;;;7371486;19;19999;-71
2023/04/29 01:58:53;;;;;;;9.20;6.82;;;11.30;78.30;;;;;;7372198;19;20474;-72
2023/04/29 02:01:23;;;;;;;8.98;6.50;;;11.20;78.10;;;;;;7373272;19;20007;-72
2023/04/29 02:03:53;;;;;;;8.80;6.43;;;11.20;78.10;;;;;;7395039;19;20003;-73
2023/04/29 02:06:24;;;;;;;8.85;6.20;;;11.10;78.00;;;;;;7373899;19;20007;-71
2023/04/29 02:08:54;;;;;;;7.40;6.20;;;11.10;78.00;;;;;;7371267;19;20433;-72
2023/04/29 02:11:26;;;;;;;10.50;6.20;;;11.10;78.00;;;;;;7371988;19;20081;-72
2023/04/29 02:13:56;;;;;;;10.23;7.15;;;11.00;77.90;;;;;;7371367;19;20419;-72
2023/04/29 02:16:26;;;;;;;7.22;6.35;;;11.00;77.80;;;;;;7372329;19;20022;-72
2023/04/29 02:18:56;;;;;;;9.73;6.25;;;10.90;77.80;;;;;;7392135;19;20081;-72
2023/04/29 02:21:26;;;;;;;8.50;6.15;;;11.00;77.80;;;;;;7371948;19;20007;-72
2023/04/29 02:23:56;;;;;;;7.90;6.53;;;10.90;77.60;;;;;;7371691;19;20010;-72
2023/04/29 02:26:28;;;;;;;10.98;7.28;;;11.00;77.90;;;;;;7372123;19;20016;-71
2023/04/29 02:28:58;;;;;;;11.82;7.50;;;11.00;78.00;;;;;;7368143;19;20006;-72
2023/04/29 02:31:28;;;;;;;11.57;7.50;;;11.10;78.10;;;;;;7371424;19;20003;-72
2023/04/29 02:33:59;;;;;;;11.93;7.18;;;11.00;78.10;;;;;;7393075;19;20010;-72
2023/04/29 02:36:29;;;;;;;9.63;7.32;;;11.00;78.10;;;;;;7372005;19;20124;-72
2023/04/29 02:38:59;;;;;;;11.93;7.72;;;11.00;78.00;;;;;;7368961;19;20538;-72
2023/04/29 02:41:31;;;;;;;10.57;7.47;;;11.00;78.00;;;;;;7370815;19;20109;-72
2023/04/29 02:44:01;;;;;;;8.93;6.93;;;11.00;78.00;;;;;;7371178;19;20025;-72
2023/04/29 02:46:32;;;;;;;8.43;6.95;;;10.90;77.80;;;;;;7372162;19;20010;-73
2023/04/29 02:49:02;;;;;;;11.60;7.63;;;10.90;77.90;;;;;;7389432;19;20019;-73
2023/04/29 02:51:32;;;;;;;9.15;7.05;;;10.80;77.80;;;;;;7369390;19;20011;-72
2023/04/29 02:54:02;;;;;;;8.10;7.07;;;10.80;77.70;;;;;;7370398;19;20017;-72
2023/04/29 02:56:34;;;;;;;11.82;7.50;;;10.90;78.20;;;;;;7371374;19;20006;-72
2023/04/29 02:59:04;;;;;;;9.45;7.07;;;10.90;78.50;;;;;;7369686;19;20436;-73
2023/04/29 03:01:34;;;;;;;7.82;6.80;;;10.80;78.40;;;;;;7371511;19;20015;-73
2023/04/29 03:04:05;;;;;;;9.00;6.68;;;10.80;78.50;;;;;;7392608;19;20027;-71
2023/04/29 03:06:35;;;;;;;11.20;6.20;;;10.90;78.60;;;;;;7370776;19;20086;-72
2023/04/29 03:09:05;;;;;;;7.90;6.30;;;10.80;78.60;;;;;;7366508;19;20019;-71
2023/04/29 03:11:38;;;;;;;8.10;6.45;;;10.80;78.50;;;;;;7370884;19;20073;-71
2023/04/29 03:14:08;;;;;;;8.45;6.60;;;10.80;78.50;;;;;;7369402;19;20022;-71
2023/04/29 03:16:38;;;;;;;11.15;6.70;;;10.80;78.60;;;;;;7370326;19;20006;-71
2023/04/29 03:19:08;;;;;;;8.32;6.85;;;10.80;78.50;;;;;;7379350;19;20010;-72
2023/04/29 03:21:37;;;;;;;9.38;7.35;;;10.70;78.60;;;;;;7392470;19;20463;-72
2023/04/29 03:24:08;;;;;;;8.98;7.05;;;10.80;78.40;;;;;;7368492;19;20018;-71
2023/04/29 03:26:41;;;;;;;11.65;6.70;;;10.70;78.30;;;;;;7369469;19;20045;-72
2023/04/29 03:29:11;;;;;;;9.48;7.10;;;10.60;78.10;;;;;;7367874;19;20067;-72
2023/04/29 03:31:41;;;;;;;9.18;6.88;;;10.60;78.00;;;;;;7370888;19;20014;-72
2023/04/29 03:34:13;;;;;;;8.07;7.20;;;10.60;77.90;;;;;;7370039;19;20014;-72
2023/04/29 03:36:43;;;;;;;8.63;6.72;;;10.60;77.90;;;;;;7391397;19;20021;-73
2023/04/29 03:39:13;;;;;;;12.05;8.15;;;10.60;77.80;;;;;;7367089;19;20573;-73
2023/04/29 03:41:45;;;;;;;8.85;7.18;;;10.50;77.60;;;;;;7370474;19;20021;-73
2023/04/29 03:44:15;;;;;;;9.88;7.55;;;10.50;77.60;;;;;;7369806;19;20386;-73
2023/04/29 03:46:45;;;;;;;9.63;7.22;;;10.60;77.90;;;;;;7368014;19;20366;-73
2023/04/29 03:49:15;;;;;;;9.65;7.25;;;10.50;77.90;;;;;;7366785;19;20010;-72
2023/04/29 03:51:46;;;;;;;9.50;7.50;;;10.50;77.90;;;;;;7391940;19;20548;-72
2023/04/29 03:54:16;;;;;;;10.10;7.40;;;10.40;77.70;;;;;;7368915;19;20490;-73
2023/04/29 03:56:49;;;;;;;9.52;7.15;;;10.40;77.80;;;;;;7369607;19;20006;-72
2023/04/29 03:59:18;;;;;;;10.07;7.20;;;10.40;77.70;;;;;;7367694;19;20010;-72
2023/04/29 04:01:48;;;;;;;10.68;7.70;;;10.40;77.60;;;;;;7370040;19;20023;-72
2023/04/29 04:04:18;;;;;;;11.57;7.03;;;10.40;77.70;;;;;;7369419;19;20010;-73
2023/04/29 04:06:50;;;;;;;12.27;8.05;;;10.40;77.70;;;;;;7390018;19;20116;-72
2023/04/29 04:09:20;;;;;;;12.70;8.52;;;10.40;77.70;;;;;;7365933;19;20010;-72
2023/04/29 04:11:53;;;;;;;11.75;9.00;;;10.40;77.70;;;;;;7369239;19;20360;-72
2023/04/29 04:14:23;;;;;;;12.85;9.35;;;10.40;77.70;;;;;;7367761;19;20109;-72
2023/04/29 04:16:53;;;;;;;10.48;8.18;;;10.40;77.70;;;;;;7366633;19;20022;-70
2023/04/29 04:19:23;;;;;;;17.65;9.15;;;10.50;77.80;;;;;;7365676;19;20019;-71
2023/04/29 04:21:53;;;;;;;13.13;8.30;;;10.50;77.90;;;;;;7391911;19;20074;-71
2023/04/29 04:24:24;;;;;;;12.20;8.85;;;10.50;77.90;;;;;;7367840;19;20513;-72
2023/04/29 04:26:57;;;;;;;11.98;9.05;;;10.60;78.00;;;;;;7366674;19;20021;-71
2023/04/29 04:29:26;;;;;;;12.30;9.48;;;10.60;78.10;;;;;;7364856;19;20014;-71
2023/04/29 04:31:56;;;;;;;17.73;9.75;;;10.70;78.20;;;;;;7368953;19;20014;-72
2023/04/29 04:34:26;;;;;;;13.30;9.77;;;11.00;78.80;;;;;;7366821;19;20029;-72
2023/04/29 04:36:56;;;;;;;14.10;10.25;;;11.30;80.00;;;;;;7388636;19;20554;-72
2023/04/29 04:39:26;;;;;;;14.85;10.18;;;11.30;79.20;;;;;;7365829;19;20029;-71
2023/04/29 04:41:58;;;;;;;13.40;10.15;;;11.30;79.20;;;;;;7366925;19;20015;-72
2023/04/29 04:44:28;;;;;;;13.30;9.90;;;11.50;79.40;;;;;;7367237;19;20011;-72
2023/04/29 04:47:00;;;;;;;13.55;9.32;;;11.60;79.60;;;;;;7366062;19;20361;-72
2023/04/29 04:49:30;;;;;;;11.88;9.90;;;11.70;79.80;;;;;;7366884;19;20020;-72
2023/04/29 04:51:59;;;;;;;13.77;8.98;;;11.70;80.20;;;;;;7391086;19;20014;-70
2023/04/29 04:54:29;;;;;;;10.13;8.70;;;11.80;80.40;;;;;;7367377;19;20074;-71
2023/04/29 04:57:04;;;;;;;10.75;8.55;;;11.80;80.50;;;;;;7365156;19;20026;-72
2023/04/29 04:59:35;;;;;;;11.93;9.27;;;11.90;80.40;;;;;;7366271;19;20489;-73
2023/04/29 05:02:05;;;;;;;10.25;8.23;;;11.90;80.00;;;;;;7367177;19;20501;-72
2023/04/29 05:04:35;;;;;;;10.38;8.38;;;11.90;79.90;;;;;;7367733;19;20139;-72
2023/04/29 05:07:05;;;;;;;9.43;7.88;;;11.90;79.70;;;;;;7388385;19;20496;-71
2023/04/29 05:09:35;;;;;;;9.30;7.82;;;11.90;79.60;;;;;;7365280;19;20011;-71
2023/04/29 05:12:07;;;;;;;13.20;8.32;;;11.90;77.70;;;;;;7366534;19;20057;-72
2023/04/29 05:14:37;;;;;;;9.65;7.60;;;12.00;77.00;;;;;;7366754;19;20013;-73
2023/04/29 05:17:08;;;;;;;15.45;7.63;;;12.10;77.20;;;;;;7365776;19;20354;-73
2023/04/29 05:19:38;;;;;;;9.20;7.70;;;12.10;75.90;;;;;;7365821;19;20018;-72
2023/04/29 05:22:08;;;;;;;8.82;7.15;;;12.10;75.30;;;;;;7371205;19;20014;-72
2023/04/29 05:24:38;;;;;;;8.82;6.60;;;12.20;75.10;;;;;;7388388;19;20018;-73
2023/04/29 05:27:11;;;;;;;7.35;6.65;;;12.20;74.40;;;;;;7364180;19;20014;-72
2023/04/29 05:29:40;;;;;;;11.55;6.90;;;12.20;72.10;;;;;;7364812;19;20018;-72
2023/04/29 05:32:12;;;;;;;9.75;6.78;;;12.20;72.00;;;;;;7372613;19;20013;-72
2023/04/29 05:34:43;;;;;;;8.20;6.70;;;12.20;70.30;;;;;;7372918;19;20090;-72
2023/04/29 05:37:13;;;;;;;8.30;6.40;;;12.30;69.70;;;;;;7373088;19;20016;-72
2023/04/29 05:39:43;;;;;;;6.70;5.63;;;12.20;67.70;;;;;;7392954;19;20106;-72
2023/04/29 05:42:15;;;;;;;8.75;5.32;;;12.20;64.80;;;;;;7372307;19;20014;-71
2023/04/29 05:44:45;;;;;;;7.30;5.43;;;12.30;66.10;;;;;;7374406;19;20014;-73
2023/04/29 05:47:16;;;;;;;6.78;5.22;;;12.30;63.70;;;;;;7372401;19;20048;-73
2023/04/29 05:49:46;;;;;;;6.55;4.60;;;12.40;62.00;;;;;;7370897;19;20018;-72
2023/04/29 05:52:16;;;;;;;7.07;4.53;;;12.50;57.90;;;;;;7374039;19;20014;-71
2023/04/29 05:54:46;;;;;;;5.95;4.72;;;12.50;56.80;;;;;;7394473;19;20017;-71
2023/04/29 05:57:18;;;;;;;8.07;4.72;;;12.70;52.40;;;;;;7371721;19;20010;-72
2023/04/29 05:59:48;;;;;;;4.85;3.88;;;12.90;49.30;;;;;;7370129;19;20011;-72
2023/04/29 06:02:18;;;;;;;4.38;3.90;;;13.00;48.70;;;;;;7373560;19;20013;-72
2023/04/29 06:04:49;;;;;;;5.63;3.80;;;13.00;48.60;;;;;;7372841;19;20013;-72
2023/04/29 06:07:20;;;;;;;5.35;3.80;;;12.90;46.40;;;;;;7372705;19;20010;-73
2023/04/29 06:09:49;;;;;;;5.05;3.90;;;12.80;44.70;;;;;;7392757;19;20090;-72
2023/04/29 06:12:22;;;;;;;5.20;3.67;;;12.80;46.10;;;;;;7372392;19;20027;-74
2023/04/29 06:14:52;;;;;;;4.15;3.75;;;12.90;45.90;;;;;;7371165;19;19998;-73
2023/04/29 06:17:22;;;;;;;5.22;3.80;;;13.00;46.20;;;;;;7371257;19;20490;-74
2023/04/29 06:19:52;;;;;;;5.45;3.60;;;12.90;45.10;;;;;;7371041;19;20485;-73
2023/04/29 06:22:23;;;;;;;4.95;3.88;;;13.00;46.00;;;;;;7372938;19;20017;-73
2023/04/29 06:24:53;;;;;;;4.25;3.70;;;13.00;44.20;;;;;;7393370;19;20078;-72
2023/04/29 06:27:25;;;;;;;6.35;3.97;;;13.20;44.10;;;;;;7369926;19;20474;-73
2023/04/29 06:29:55;;;;;;;8.90;4.25;;;13.50;38.30;;;;;;7369278;19;20026;-73
2023/04/29 06:32:25;;;;;;;3.90;3.50;;;13.50;40.10;;;;;;7372666;19;20006;-74
2023/04/29 06:34:55;;;;;;;4.75;3.80;;;13.70;32.00;;;;;;7369853;19;20010;-73
2023/04/29 06:37:25;;;;;;;4.55;3.40;;;13.80;36.10;;;;;;7370617;19;20006;-74
2023/04/29 06:39:55;;;;;;;5.05;3.60;;;13.60;28.80;;;;;;7391433;19;20015;-72
2023/04/29 06:42:27;;;;;;;4.57;3.15;;;14.00;26.80;;;;;;7371346;19;20014;-74
2023/04/29 06:44:57;;;;;;;3.75;3.00;;;14.40;27.90;;;;;;7370530;19;20011;-73
2023/04/29 06:47:27;;;;;;;3.80;3.33;;;14.00;26.90;;;;;;7370103;19;20014;-74
2023/04/29 06:49:57;;;;;;;5.32;3.60;;;14.30;28.40;;;;;;7369014;19;20010;-74
2023/04/29 06:52:27;;;;;;;4.75;3.05;;;14.60;19.90;;;;;;7372015;19;20019;-73
2023/04/29 06:54:57;;;;;;;4.38;3.60;;;14.00;26.70;;;;;;7391903;19;20034;-73
2023/04/29 06:57:30;;;;;;;5.65;2.85;;;13.90;28.10;;;;;;7370450;19;20418;-74
2023/04/29 07:00:00;;;;;;;3.17;2.80;;;13.80;25.60;;;;;;7368237;19;20017;-74
2023/04/29 07:02:30;;;;;;;4.13;2.90;;;14.00;26.80;;;;;;7371359;19;20014;-72
2023/04/29 07:05:01;;;;;;;4.55;2.90;;;14.30;25.60;;;;;;7370472;19;20014;-73
2023/04/29 07:07:31;;;;;;;3.47;2.70;;;14.40;21.60;;;;;;7369554;19;20082;-73
2023/04/29 07:10:01;;;;;;;2.58;2.38;;;14.50;19.30;;;;;;7390744;19;20023;-73
2023/04/29 07:12:34;;;;;;;3.70;2.38;;;14.50;18.60;;;;;;7371019;19;20010;-74
2023/04/29 07:15:04;;;;;;;4.50;2.90;;;14.70;18.80;;;;;;7368174;19;20014;-73
2023/04/29 07:17:34;;;;;;;3.63;2.63;;;14.90;14.60;;;;;;7369752;19;20139;-73
2023/04/29 07:20:04;;;;;;;3.53;3.20;;;14.20;15.10;;;;;;7369232;19;20041;-74
2023/04/29 07:22:34;;;;;;;3.90;3.30;;;14.10;17.40;;;;;;7370460;19;20163;-73
2023/04/29 07:25:04;;;;;;;4.18;2.90;;;14.10;20.00;;;;;;7392133;19;20081;-72
2023/04/29 07:27:37;;;;;;;5.15;3.40;;;14.10;16.40;;;;;;7369348;19;20349;-72
2023/04/29 07:30:08;;;;;;;3.97;3.13;;;13.80;19.00;;;;;;7367183;19;20980;-73
2023/04/29 07:32:38;;;;;;;3.60;2.60;;;13.80;22.00;;;;;;7369925;19;20020;-73
2023/04/29 07:35:08;;;;;;;3.45;2.88;;;13.90;20.00;;;;;;7368464;19;20022;-74
2023/04/29 07:37:38;;;;;;;2.95;2.65;;;13.70;21.10;;;;;;7368559;19;20011;-73
2023/04/29 07:40:12;;;;;;;5.05;2.72;;;13.80;21.20;;;;;;7368185;19;20334;-73
2023/04/29 07:42:45;;;;;;;3.42;2.72;;;13.50;19.90;;;;;;7391277;19;20507;-73
2023/04/29 07:45:15;;;;;;;3.75;2.67;;;13.40;20.90;;;;;;7368658;19;20474;-73
2023/04/29 07:47:45;;;;;;;3.05;2.63;;;13.50;22.50;;;;;;7366771;19;20016;-72
2023/04/29 07:50:15;;;;;;;4.00;2.92;;;13.60;21.50;;;;;;7367868;19;20059;-73
2023/04/29 07:52:45;;;;;;;5.72;2.75;;;13.30;19.90;;;;;;7369569;19;20003;-73
2023/04/29 07:55:15;;;;;;;3.75;2.92;;;13.40;22.70;;;;;;7367722;19;20010;-73
2023/04/29 07:57:47;;;;;;;7.80;2.90;;;13.70;22.60;;;;;;7389406;19;20013;-73
2023/04/29 08:00:17;;;;;;;3.20;2.55;;;13.70;20.80;;;;;;7366537;19;20018;-73
2023/04/29 08:02:47;;;;;;;6.80;3.00;;;13.40;21.90;;;;;;7367563;19;20014;-73
2023/04/29 08:05:18;;;;;;;3.35;3.03;;;13.60;21.60;;;;;;7368552;19;20013;-72
2023/04/29 08:07:48;;;;;;;3.53;2.55;;;14.00;21.30;;;;;;7366373;19;20638;-72
2023/04/29 08:10:18;;;;;;;6.18;2.58;;;13.70;18.80;;;;;;7367840;19;20070;-72
2023/04/29 08:12:51;;;;;;;10.15;3.38;;;13.80;19.50;;;;;;7390777;19;20085;-73
2023/04/29 08:15:21;;;;;;;4.70;2.83;;;14.00;17.80;;;;;;7367932;19;20016;-72
2023/04/29 08:17:51;;;;;;;3.38;2.42;;;14.10;15.50;;;;;;7365556;19;20018;-73
2023/04/29 08:20:21;;;;;;;3.28;2.50;;;14.30;16.20;;;;;;7366549;19;20027;-73
2023/04/29 08:22:52;;;;;;;5.13;2.53;;;14.50;15.60;;;;;;7367868;19;20029;-74
2023/04/29 08:25:22;;;;;;;4.18;2.53;;;14.50;13.90;;;;;;7367598;19;20470;-72
2023/04/29 08:27:54;;;;;;;2.92;2.58;;;14.70;15.60;;;;;;7386985;19;20014;-73
2023/04/29 08:30:24;;;;;;;3.92;2.80;;;14.50;10.70;;;;;;7365808;19;20011;-73
2023/04/29 08:32:54;;;;;;;3.22;2.30;;;14.40;13.60;;;;;;7368019;19;20015;-73
2023/04/29 08:35:25;;;;;;;3.58;2.97;;;14.50;11.00;;;;;;7368068;19;20037;-72
2023/04/29 08:37:55;;;;;;;4.30;2.38;;;14.50;15.60;;;;;;7365575;19;20106;-72
2023/04/29 08:40:25;;;;;;;3.25;2.40;;;14.20;11.80;;;;;;7367077;19;20127;-72
2023/04/29 08:42:58;;;;;;;6.72;2.25;;;13.90;14.10;;;;;;7389120;19;20010;-72
2023/04/29 08:45:30;;;;;;;3.47;2.47;;;13.90;14.00;;;;;;7367464;19;20014;-72
2023/04/29 08:48:00;;;;;;;5.07;2.80;;;13.60;14.20;;;;;;7364760;19;20031;-71
2023/04/29 08:50:32;;;;;;;2.92;2.53;;;13.70;12.20;;;;;;7366335;19;20083;-72
2023/04/29 08:53:02;;;;;;;4.53;3.00;;;13.70;14.90;;;;;;7367548;19;20010;-71
2023/04/29 08:55:32;;;;;;;4.10;3.15;;;13.80;16.60;;;;;;7367141;19;20871;-72
2023/04/29 08:58:05;;;;;;;3.95;3.17;;;13.90;11.40;;;;;;7387470;19;20087;-72
2023/04/29 09:00:36;;;;;;;3.17;2.88;;;14.00;11.50;;;;;;7365751;19;20478;-72
2023/04/29 09:03:16;;;;;;;5.72;3.00;;;14.40;10.80;;;;;;7367195;19;20035;-71
2023/04/29 09:05:51;;;;;;;4.30;3.63;;;14.30;8.50;;;;;;7371781;19;20014;-73
2023/04/29 09:08:22;;;;;;;3.97;3.30;;;14.30;13.10;;;;;;7372289;19;20011;-73
2023/04/29 09:10:53;;;;;;;5.28;3.97;;;14.10;14.20;;;;;;7371532;19;20003;-73
2023/04/29 09:13:30;;;;;;;4.22;3.83;;;14.30;14.40;;;;;;7374462;19;20014;-72
2023/04/29 09:16:00;;;;;;;4.32;3.47;;;14.60;12.80;;;;;;7395960;19;20021;-72
2023/04/29 09:18:49;;;;;;;5.82;3.40;;;14.40;7.50;;;;;;7372985;19;20015;-73
2023/04/29 09:21:20;;;;;;;4.38;3.30;;;15.00;8.00;;;;;;7373247;19;20021;-73
2023/04/29 09:23:53;;;;;;;4.45;3.58;;;14.90;3.80;;;;;;7372333;19;20041;-73
2023/04/29 09:26:23;;;;;;;7.40;3.05;;;15.00;2.60;;;;;;7371679;19;20097;-72
2023/04/29 09:29:17;;;;;;;4.88;3.33;;;14.30;2.90;;;;;;7373446;19;20042;-72
2023/04/29 09:31:47;;;;;;;7.07;3.28;;;14.70;3.90;;;;;;7373575;19;20010;-72
2023/04/29 09:34:17;;;;;;;3.90;3.08;;;14.70;3.50;;;;;;7373754;19;20014;-72
2023/04/29 09:36:49;;;;;;;6.47;3.88;;;14.20;3.20;;;;;;7393885;19;20018;-73
2023/04/29 09:39:21;;;;;;;4.50;3.45;;;13.90;7.00;;;;;;7372346;19;20009;-71
2023/04/29 09:42:02;;;;;;;3.72;3.40;;;13.60;7.30;;;;;;7373060;19;20015;-73
2023/04/29 09:44:37;;;;;;;4.78;4.00;;;13.90;9.20;;;;;;7373436;19;20016;-71
2023/04/29 09:47:08;;;;;;;5.80;4.15;;;14.30;7.60;;;;;;7371880;19;20021;-72
2023/04/29 09:49:40;;;;;;;4.50;4.10;;;14.30;3.30;;;;;;7372155;19;20041;-72
2023/04/29 09:52:12;;;;;;;4.68;4.15;;;14.00;6.00;;;;;;7372351;19;20007;-72
2023/04/29 09:54:44;;;;;;;4.30;3.90;;;14.30;8.70;;;;;;7393803;19;20010;-72
2023/04/29 09:57:15;;;;;;;5.50;3.15;;;14.30;3.50;;;;;;7370694;19;20387;-72
2023/04/29 09:59:47;;;;;;;3.67;3.33;;;14.50;2.20;;;;;;7370620;19;20021;-72
2023/04/29 10:02:19;;;;;;;4.00;3.50;;;14.70;2.30;;;;;;7373514;19;20006;-71
2023/04/29 10:04:56;;;;;;;3.92;3.50;;;14.70;3.50;;;;;;7373009;19;20014;-72
2023/04/29 10:07:27;;;;;;;3.75;3.35;;;14.40;3.50;;;;;;7371260;19;20010;-72
2023/04/29 10:09:58;;;;;;;4.07;3.60;;;14.50;5.70;;;;;;7392949;19;20007;-72
2023/04/29 10:12:28;;;;;;;5.80;3.38;;;14.30;3.10;;;;;;7370948;19;20006;-72
2023/04/29 10:15:05;;;;;;;3.63;3.33;;;14.30;3.90;;;;;;7370307;19;20442;-72
2023/04/29 10:17:39;;;;;;;6.00;3.92;;;14.40;3.50;;;;;;7369586;19;20017;-72
2023/04/29 10:20:11;;;;;;;4.72;3.63;;;14.60;3.70;;;;;;7369315;19;20488;-72
2023/04/29 10:22:47;;;;;;;4.20;3.50;;;14.60;3.50;;;;;;7371232;19;20007;-72
2023/04/29 10:25:18;;;;;;;3.90;3.05;;;14.50;1.00;;;;;;7372103;19;20522;-73
2023/04/29 10:27:51;;;;;;;3.97;3.58;;;14.70;3.10;;;;;;7392156;19;20007;-71
2023/04/29 10:30:24;;;;;;;4.07;3.67;;;14.50;1.20;;;;;;7370019;19;20462;-71
2023/04/29 10:32:55;;;;;;;4.10;3.60;;;14.30;3.10;;;;;;7370862;19;20509;-72
2023/04/29 10:35:26;;;;;;;3.45;3.15;;;14.60;1.60;;;;;;7371232;19;20014;-72
2023/04/29 10:37:57;;;;;;;4.57;3.50;;;14.40;1.00;;;;;;7368724;19;20378;-72
2023/04/29 10:40:32;;;;;;;5.68;3.33;;;14.50;1.00;;;;;;7369899;19;20031;-72
2023/04/29 10:43:03;;;;;;;6.05;3.55;;;15.00;1.00;;;;;;7393203;19;20010;-71
2023/04/29 10:45:36;;;;;;;4.82;3.42;;;14.50;1.00;;;;;;7371356;19;20003;-71
2023/04/29 10:48:17;;;;;;;6.07;3.58;;;14.80;1.00;;;;;;7370353;19;20014;-72
2023/04/29 10:51:04;;;;;;;4.28;3.88;;;15.30;1.00;;;;;;7370017;19;20014;-72
2023/04/29 10:53:34;;;;;;;4.18;3.63;;;15.20;1.00;;;;;;7370303;19;20062;-73
2023/04/29 10:56:10;;;;;;;6.30;3.70;;;15.60;1.00;;;;;;7370610;19;20498;-72
2023/04/29 10:58:45;;;;;;;6.60;3.22;;;15.20;1.00;;;;;;7370621;19;20025;-73
2023/04/29 11:01:19;;;;;;;3.38;3.08;;;15.50;1.00;;;;;;7368790;19;20494;-71
2023/04/29 11:03:57;;;;;;;6.43;3.92;;;15.40;1.00;;;;;;7392012;19;20010;-72
2023/04/29 11:06:40;;;;;;;4.88;4.30;;;15.20;1.00;;;;;;7369903;19;20057;-72
2023/04/29 11:09:16;;;;;;;7.90;6.05;;;14.70;1.00;;;;;;7368163;19;20888;-72
2023/04/29 11:11:52;;;;;;;6.32;5.15;;;15.00;1.00;;;;;;7371145;19;20463;-74
2023/04/29 11:14:25;;;;;;;6.80;5.90;;;15.20;1.00;;;;;;7368838;19;20018;-72
2023/04/29 11:17:00;;;;;;;6.40;5.30;;;14.90;1.00;;;;;;7366359;19;20093;-72
2023/04/29 11:19:34;;;;;;;8.15;5.50;;;14.90;1.00;;;;;;7368350;19;20019;-73
2023/04/29 11:22:16;;;;;;;7.30;5.32;;;15.20;1.00;;;;;;7392529;19;20466;-73
2023/04/29 11:24:54;;;;;;;6.82;5.90;;;15.30;1.00;;;;;;7369529;19;20016;-73
2023/04/29 11:27:27;;;;;;;6.88;5.50;;;15.30;1.00;;;;;;7368433;19;20014;-72
2023/04/29 11:29:59;;;;;;;7.10;5.57;;;15.30;1.00;;;;;;7363939;19;20010;-71
2023/04/29 11:32:33;;;;;;;9.18;5.95;;;15.10;1.00;;;;;;7370002;19;20014;-72
2023/04/29 11:35:11;;;;;;;7.50;5.97;;;15.30;1.00;;;;;;7369055;19;20031;-73
2023/04/29 11:37:41;;;;;;;7.80;6.90;;;15.90;1.00;;;;;;7366590;19;20474;-71
2023/04/29 11:40:13;;;;;;;7.10;5.28;;;15.90;1.00;;;;;;7367880;19;20361;-73
2023/04/29 11:42:45;;;;;;;7.40;6.05;;;16.30;1.00;;;;;;7390681;19;20070;-72
2023/04/29 11:45:15;;;;;;;7.95;5.75;;;15.70;1.00;;;;;;7368831;19;20003;-72
2023/04/29 11:47:49;;;;;;;7.18;5.80;;;15.50;1.00;;;;;;7367185;19;20021;-73
2023/04/29 11:50:22;;;;;;;8.73;5.55;;;15.20;1.00;;;;;;7366218;19;20101;-72
2023/04/29 11:52:52;;;;;;;5.20;4.70;;;15.60;1.00;;;;;;7368958;19;20011;-73
2023/04/29 11:55:22;;;;;;;6.03;5.43;;;15.60;1.00;;;;;;7367290;19;20074;-72
2023/04/29 11:57:52;;;;;;;7.55;6.38;;;15.30;1.00;;;;;;7388412;19;20018;-72
2023/04/29 12:00:22;;;;;;;7.15;5.53;;;14.80;1.00;;;;;;7366497;19;20014;-73
2023/04/29 12:02:55;;;;;;;6.28;5.10;;;14.70;1.00;;;;;;7367177;19;20080;-73
2023/04/29 12:05:27;;;;;;;9.32;6.20;;;14.80;1.00;;;;;;7368836;19;20006;-73
2023/04/29 12:07:57;;;;;;;5.53;4.90;;;15.00;1.00;;;;;;7366642;19;20007;-71
2023/04/29 12:10:27;;;;;;;6.53;5.55;;;15.10;1.00;;;;;;7366854;19;20023;-72
2023/04/29 12:12:57;;;;;;;6.82;5.88;;;15.10;1.00;;;;;;7389223;19;20010;-74
2023/04/29 12:15:28;;;;;;;6.35;5.57;;;15.20;1.00;;;;;;7367289;19;20010;-72
2023/04/29 12:18:02;;;;;;;7.32;5.38;;;15.10;1.00;;;;;;7365211;19;20090;-73
2023/04/29 12:20:32;;;;;;;8.13;5.57;;;14.90;1.00;;;;;;7368050;19;20018;-72
2023/04/29 12:23:13;;;;;;;9.75;6.35;;;15.40;1.00;;;;;;7368069;19;20192;-73
2023/04/29 12:25:43;;;;;;;9.13;6.50;;;15.00;1.00;;;;;;7366636;19;20010;-72
2023/04/29 12:28:16;;;;;;;7.72;6.18;;;15.20;1.00;;;;;;7366162;19;20026;-72
2023/04/29 12:30:47;;;;;;;7.18;5.65;;;15.10;1.00;;;;;;7389250;19;20046;-73
2023/04/29 12:33:27;;;;;;;9.20;5.72;;;15.10;1.00;;;;;;7367046;19;20031;-72
2023/04/29 12:35:59;;;;;;;8.10;5.70;;;15.20;1.00;;;;;;7366067;19;20014;-72
2023/04/29 12:38:31;;;;;;;9.25;5.97;;;15.10;1.00;;;;;;7366608;19;20029;-72
2023/04/29 12:41:04;;;;;;;8.85;5.68;;;15.30;1.00;;;;;;7370389;19;20432;-74
2023/04/29 12:43:35;;;;;;;9.13;6.05;;;15.40;1.00;;;;;;7374845;19;20015;-72
2023/04/29 12:46:06;;;;;;;6.15;5.22;;;15.30;1.00;;;;;;7395014;19;20023;-72
2023/04/29 12:48:40;;;;;;;7.78;5.90;;;15.00;1.00;;;;;;7375390;19;20017;-72
2023/04/29 12:51:11;;;;;;;11.68;8.07;;;14.90;1.00;;;;;;7373321;19;20030;-72
2023/04/29 12:53:41;;;;;;;7.68;6.55;;;15.30;1.00;;;;;;7373135;19;20342;-72
2023/04/29 12:56:13;;;;;;;8.32;6.30;;;14.90;1.00;;;;;;7373039;19;20050;-72
2023/04/29 12:58:43;;;;;;;8.57;5.80;;;14.90;1.00;;;;;;7374776;19;20022;-73
2023/04/29 13:01:13;;;;;;;9.30;6.47;;;14.90;1.00;;;;;;7371115;19;20010;-73
2023/04/29 13:03:50;;;;;;;7.07;5.78;;;15.00;1.00;;;;;;7396879;19;20083;-73
2023/04/29 13:06:20;;;;;;;6.97;5.53;;;14.80;1.00;;;;;;7373364;19;20083;-72
2023/04/29 13:08:50;;;;;;;6.80;5.60;;;14.80;1.00;;;;;;7373268;19;20041;-73
2023/04/29 13:11:21;;;;;;;7.88;5.53;;;14.90;1.00;;;;;;7374035;19;20462;-73